Time;durP1;ratioP1;P1;durP2;ratioP2;P2;SDS_P1;SDS_P2;PMS_P1;PMS_P2;Temp;Humidity;BMP_temperature;BMP_pressure;BME280_temperature;BME280_humidity;BME280_pressure;Samples;Min_cycle;Max_cycle;Signal;HPM_P1;HPM_P2
2020/12/09 00:00:43;;;;;;;59.13;39.25;;;;;;;3.20;93.82;100828.53;5062728;28;20175;-71
2020/12/09 00:03:08;;;;;;;55.50;36.83;;;;;;;3.25;93.78;100840.56;5064666;28;20063;-72
2020/12/09 00:05:35;;;;;;;57.35;36.65;;;;;;;3.21;93.01;100838.13;5064035;28;20127;-71
2020/12/09 00:08:01;;;;;;;57.33;37.50;;;;;;;3.21;93.03;100832.00;5060379;28;20062;-71
2020/12/09 00:10:26;;;;;;;60.67;39.42;;;;;;;3.23;93.82;100832.75;5057675;28;20135;-71
2020/12/09 00:12:52;;;;;;;55.70;37.03;;;;;;;3.19;92.63;100834.75;5064845;28;20165;-72
2020/12/09 00:15:17;;;;;;;56.42;37.13;;;;;;;3.17;93.18;100839.28;5062521;28;20128;-71
2020/12/09 00:17:43;;;;;;;58.35;37.55;;;;;;;3.17;93.15;100835.81;5057890;28;20048;-71
2020/12/09 00:20:08;;;;;;;58.83;38.00;;;;;;;2.62;93.07;100740.25;5062275;28;20124;-71
2020/12/09 00:22:35;;;;;;;54.78;37.05;;;;;;;2.88;92.91;100793.84;5057106;28;20075;-72
2020/12/09 00:25:01;;;;;;;54.00;36.30;;;;;;;3.11;92.47;100836.22;5062100;28;20075;-71
2020/12/09 00:27:26;;;;;;;56.55;37.47;;;;;;;3.08;92.32;100839.94;5059699;28;20036;-71
2020/12/09 00:29:52;;;;;;;55.33;36.88;;;;;;;3.06;92.13;100847.94;5060245;28;20043;-71
2020/12/09 00:32:17;;;;;;;57.00;38.28;;;;;;;3.04;92.99;100839.31;5062440;28;20048;-72
2020/12/09 00:34:43;;;;;;;61.17;39.20;;;;;;;3.04;93.62;100836.66;5062060;28;20094;-71
2020/12/09 00:37:08;;;;;;;58.65;37.88;;;;;;;3.01;93.36;100847.41;5059061;28;20060;-71
2020/12/09 00:39:34;;;;;;;57.78;37.92;;;;;;;3.03;93.54;100848.16;5040300;28;20092;-71
2020/12/09 00:42:00;;;;;;;63.63;39.58;;;;;;;3.04;94.07;100846.34;5066527;28;20892;-71
2020/12/09 00:44:26;;;;;;;61.88;39.05;;;;;;;2.40;93.84;100745.16;5065863;28;20032;-71
2020/12/09 00:46:51;;;;;;;58.80;38.90;;;;;;;2.97;93.85;100848.56;5063537;28;20127;-70
2020/12/09 00:49:17;;;;;;;62.00;37.97;;;;;;;2.95;94.14;100852.25;5065021;28;20120;-70
2020/12/09 00:51:42;;;;;;;60.15;38.20;;;;;;;2.91;93.64;100855.09;5063839;28;20577;-71
2020/12/09 00:54:08;;;;;;;61.25;37.95;;;;;;;2.83;93.77;100849.50;5066493;28;20419;-71
2020/12/09 00:56:33;;;;;;;59.67;38.08;;;;;;;2.83;93.18;100854.78;5061751;28;20127;-71
2020/12/09 00:58:59;;;;;;;55.95;36.78;;;;;;;2.85;93.85;100857.28;5058708;28;20123;-71
2020/12/09 01:01:25;;;;;;;58.70;37.58;;;;;;;2.82;93.69;100855.72;5065258;28;20064;-71
2020/12/09 01:03:50;;;;;;;58.75;37.97;;;;;;;2.79;93.78;100858.56;5066383;28;20123;-71
2020/12/09 01:06:16;;;;;;;58.60;37.05;;;;;;;2.75;93.55;100855.28;5065150;28;20146;-70
2020/12/09 01:08:41;;;;;;;58.38;38.28;;;;;;;2.73;93.56;100864.22;5062913;28;20139;-70
2020/12/09 01:11:07;;;;;;;57.83;37.47;;;;;;;2.66;93.38;100849.78;5065537;28;21449;-71
2020/12/09 01:13:33;;;;;;;60.42;38.50;;;;;;;2.60;93.46;100854.50;5066980;28;20148;-71
2020/12/09 01:15:59;;;;;;;58.78;37.72;;;;;;;2.54;93.36;100865.44;5063061;28;20368;-71
2020/12/09 01:18:24;;;;;;;57.30;37.53;;;;;;;2.50;93.74;100869.22;5063385;28;20033;-70
2020/12/09 01:20:50;;;;;;;62.03;37.67;;;;;;;2.47;93.37;100873.84;5066454;28;20040;-71
2020/12/09 01:23:16;;;;;;;58.55;37.75;;;;;;;2.40;94.00;100868.13;5063495;28;20128;-71
2020/12/09 01:25:41;;;;;;;60.78;39.10;;;;;;;2.23;94.00;100856.91;5048296;28;20082;-71
2020/12/09 01:28:07;;;;;;;61.97;38.00;;;;;;;2.26;93.93;100867.22;5039372;28;20029;-70
2020/12/09 01:30:32;;;;;;;63.30;40.55;;;;;;;2.19;94.37;100873.81;5055752;28;20052;-71
2020/12/09 01:32:58;;;;;;;69.15;40.97;;;;;;;2.18;94.67;100871.31;5062960;28;20095;-71
2020/12/09 01:35:23;;;;;;;67.10;40.03;;;;;;;2.12;94.20;100872.53;5055566;28;20076;-71
2020/12/09 01:37:49;;;;;;;68.07;41.10;;;;;;;2.04;95.06;100878.28;5064176;28;20032;-72
2020/12/09 01:40:15;;;;;;;72.75;40.67;;;;;;;1.98;94.89;100882.16;5064659;28;20123;-71
2020/12/09 01:42:40;;;;;;;71.20;42.85;;;;;;;1.95;95.77;100889.41;5065463;28;20071;-72
2020/12/09 01:45:06;;;;;;;69.93;42.83;;;;;;;1.75;95.84;100859.91;5063900;28;20443;-72
2020/12/09 01:47:31;;;;;;;75.50;42.80;;;;;;;1.64;95.78;100843.94;5061577;28;20056;-71
2020/12/09 01:49:58;;;;;;;73.55;43.45;;;;;;;1.86;96.00;100882.06;5063724;28;20040;-71
2020/12/09 01:52:23;;;;;;;73.55;43.67;;;;;;;1.51;96.34;100830.69;5054239;28;20060;-71
2020/12/09 01:54:52;;;;;;;68.80;42.63;;;;;;;1.76;95.93;100890.53;5062564;28;20052;-71
2020/12/09 01:57:17;;;;;;;74.00;43.10;;;;;;;1.73;96.42;100892.53;5061491;28;20036;-71
2020/12/09 01:59:43;;;;;;;75.15;43.53;;;;;;;1.68;96.23;100884.91;5065171;28;20024;-71
2020/12/09 02:02:08;;;;;;;69.93;42.28;;;;;;;1.51;96.28;100864.88;5065865;28;20044;-71
2020/12/09 02:04:34;;;;;;;74.65;44.92;;;;;;;1.60;96.27;100881.88;5066920;28;20075;-70
2020/12/09 02:07:03;;;;;;;75.38;43.30;;;;;;;1.38;96.44;100857.75;5063198;28;20075;-71
2020/12/09 02:09:28;;;;;;;78.30;46.53;;;;;;;1.52;96.96;100885.00;5066045;28;20029;-71
2020/12/09 02:11:54;;;;;;;79.93;44.50;;;;;;;0.37;96.94;100709.63;5065189;28;20131;-71
2020/12/09 02:14:20;;;;;;;75.50;44.10;;;;;;;1.48;96.81;100889.59;5065633;28;20044;-71
2020/12/09 02:16:53;;;;;;;78.78;44.33;;;;;;;1.42;96.94;100889.97;5062737;28;20044;-71
2020/12/09 02:19:18;;;;;;;72.53;43.03;;;;;;;1.35;96.79;100889.50;5061231;28;20055;-72
2020/12/09 02:21:44;;;;;;;80.60;45.67;;;;;;;1.18;97.05;100866.00;5062391;28;20557;-70
2020/12/09 02:24:09;;;;;;;79.53;44.83;;;;;;;1.29;96.75;100887.22;5065945;28;20056;-70
2020/12/09 02:26:40;;;;;;;89.28;46.72;;;;;;;0.65;97.38;100790.25;5062948;28;20433;-70
2020/12/09 02:29:06;;;;;;;82.93;45.92;;;;;;;1.26;97.57;100889.22;5043283;28;20210;-71
2020/12/09 02:31:31;;;;;;;80.70;45.35;;;;;;;1.21;97.50;100892.94;5064480;28;20040;-71
2020/12/09 02:33:56;;;;;;;76.90;44.30;;;;;;;1.12;96.85;100885.63;5064863;28;20110;-71
2020/12/09 02:36:22;;;;;;;86.28;47.00;;;;;;;1.15;98.00;100885.44;5064412;28;20439;-71
2020/12/09 02:38:47;;;;;;;76.63;44.42;;;;;;;1.02;97.35;100873.94;5060798;28;20037;-71
2020/12/09 02:41:13;;;;;;;79.28;44.83;;;;;;;1.06;97.02;100883.34;5063091;28;20047;-71
2020/12/09 02:43:38;;;;;;;76.90;45.65;;;;;;;0.86;97.61;100859.09;5067290;28;20032;-71
2020/12/09 02:46:04;;;;;;;81.00;44.63;;;;;;;1.00;97.72;100887.16;5066348;28;20032;-71
2020/12/09 02:48:29;;;;;;;85.18;47.78;;;;;;;0.83;98.01;100850.50;5064573;28;20041;-71
2020/12/09 02:50:56;;;;;;;82.53;46.92;;;;;;;1.01;97.78;100880.97;5065335;28;20444;-71
2020/12/09 02:53:21;;;;;;;85.15;46.83;;;;;;;0.98;97.97;100883.78;5064124;28;20104;-71
2020/12/09 02:55:47;;;;;;;84.07;46.55;;;;;;;0.79;97.46;100865.63;5064000;28;20037;-71
2020/12/09 02:58:12;;;;;;;85.85;46.28;;;;;;;0.91;97.53;100880.66;5057851;28;20052;-71
2020/12/09 03:00:38;;;;;;;89.10;47.10;;;;;;;0.84;97.83;100876.72;5046024;28;20028;-71
2020/12/09 03:03:03;;;;;;;91.90;47.67;;;;;;;0.95;97.84;100885.75;5063914;28;20052;-70
2020/12/09 03:05:29;;;;;;;87.50;48.15;;;;;;;0.97;98.01;100883.88;5065428;28;20032;-71
2020/12/09 03:07:54;;;;;;;100.55;47.30;;;;;;;0.95;97.67;100893.63;5060348;28;20055;-71
2020/12/09 03:10:20;;;;;;;118.40;50.13;;;;;;;0.73;98.35;100850.22;5060445;28;20032;-71
2020/12/09 03:12:46;;;;;;;113.07;49.88;;;;;;;0.93;98.67;100874.47;5044092;28;20040;-71
2020/12/09 03:15:11;;;;;;;172.05;47.08;;;;;;;0.97;98.09;100891.78;5061029;28;20049;-70
2020/12/09 03:17:37;;;;;;;196.77;47.95;;;;;;;1.00;98.37;100892.44;5059914;28;20114;-71
2020/12/09 03:20:02;;;;;;;123.78;46.85;;;;;;;1.04;98.63;100891.31;5057087;28;20036;-70
2020/12/09 03:22:31;;;;;;;151.75;45.28;;;;;;;1.05;98.36;100892.16;5060550;28;20093;-70
2020/12/09 03:24:56;;;;;;;98.53;45.30;;;;;;;0.83;97.66;100864.53;5064996;28;20049;-71
2020/12/09 03:27:22;;;;;;;171.57;41.85;;;;;;;0.96;97.48;100895.34;5062976;28;20600;-71
2020/12/09 03:29:47;;;;;;;223.25;40.08;;;;;;;0.90;96.47;100891.28;5066606;28;20544;-71
2020/12/09 03:32:13;;;;;;;184.98;38.45;;;;;;;0.82;96.91;100889.09;5062855;28;20068;-70
2020/12/09 03:34:39;;;;;;;157.02;35.75;;;;;;;0.74;96.68;100878.19;5062589;28;20041;-71
2020/12/09 03:37:04;;;;;;;219.57;40.10;;;;;;;0.67;97.44;100882.97;5060305;28;20332;-72
2020/12/09 03:39:29;;;;;;;283.75;43.05;;;;;;;0.63;97.57;100880.56;5065127;28;20036;-72
2020/12/09 03:41:55;;;;;;;248.18;42.10;;;;;;;0.63;97.28;100893.69;5062687;28;20102;-72
2020/12/09 03:44:20;;;;;;;231.02;39.75;;;;;;;0.56;96.17;100894.06;5064028;28;20406;-72
2020/12/09 03:46:46;;;;;;;228.70;41.47;;;;;;;0.49;96.58;100910.25;5063530;28;20040;-71
2020/12/09 03:49:11;;;;;;;270.42;42.95;;;;;;;0.44;96.77;100902.63;5077595;28;20032;-72
2020/12/09 03:51:37;;;;;;;257.80;43.42;;;;;;;0.38;97.46;100909.09;5063050;28;20066;-71
2020/12/09 03:54:03;;;;;;;218.77;42.38;;;;;;;0.27;97.36;100901.78;5065545;28;20045;-70
2020/12/09 03:56:29;;;;;;;153.00;41.28;;;;;;;0.19;97.82;100890.88;5066429;28;20041;-71
2020/12/09 03:58:54;;;;;;;112.43;37.25;;;;;;;0.23;97.16;100905.50;5061082;28;20410;-71
2020/12/09 04:01:20;;;;;;;82.78;34.78;;;;;;;0.21;96.47;100909.16;5065423;28;20045;-71
2020/12/09 04:03:45;;;;;;;116.07;32.47;;;;;;;0.17;95.79;100908.50;5062089;28;20029;-71
2020/12/09 04:06:11;;;;;;;134.95;36.17;;;;;;;0.03;95.48;100908.41;5063812;28;20379;-71
2020/12/09 04:08:36;;;;;;;72.38;31.08;;;;;;;-0.08;95.00;100912.47;5060763;28;20072;-72
2020/12/09 04:11:02;;;;;;;90.45;30.23;;;;;;;-0.10;94.32;100921.31;5062645;28;20032;-71
2020/12/09 04:13:27;;;;;;;71.85;29.08;;;;;;;-0.24;93.95;100914.19;5064750;28;20033;-71
2020/12/09 04:15:53;;;;;;;78.82;29.27;;;;;;;-0.34;94.21;100921.69;5067640;28;20044;-70
2020/12/09 04:18:18;;;;;;;54.60;29.42;;;;;;;-0.34;95.22;100919.91;5065110;28;20032;-71
2020/12/09 04:20:44;;;;;;;61.42;31.45;;;;;;;-0.48;95.08;100909.31;5065438;28;20490;-71
2020/12/09 04:23:09;;;;;;;213.13;32.20;;;;;;;-0.59;93.93;100922.13;5065844;28;20461;-71
2020/12/09 04:25:35;;;;;;;67.60;32.50;;;;;;;-0.57;95.18;100918.50;5064777;28;20241;-71
2020/12/09 04:28:00;;;;;;;85.70;32.55;;;;;;;-0.54;95.08;100914.88;5064281;28;20052;-71
2020/12/09 04:30:26;;;;;;;121.45;36.03;;;;;;;-0.56;95.61;100920.22;5062444;28;20098;-71
2020/12/09 04:32:51;;;;;;;106.10;34.05;;;;;;;-0.57;95.22;100910.66;5065847;28;20043;-71
2020/12/09 04:35:17;;;;;;;177.90;32.42;;;;;;;-0.63;93.68;100918.81;5065397;28;20493;-71
2020/12/09 04:37:44;;;;;;;122.30;32.38;;;;;;;-0.79;93.90;100900.41;5063890;28;20067;-71
2020/12/09 04:40:09;;;;;;;75.47;32.33;;;;;;;-0.69;94.24;100929.63;5046310;28;20092;-71
2020/12/09 04:42:35;;;;;;;109.47;32.78;;;;;;;-0.73;94.90;100925.47;5065279;28;20067;-71
2020/12/09 04:45:01;;;;;;;96.10;32.28;;;;;;;-0.68;94.99;100937.41;5065331;28;20036;-71
2020/12/09 04:47:28;;;;;;;198.65;37.10;;;;;;;-0.73;95.40;100926.28;5062499;28;20506;-71
2020/12/09 04:50:13;;;;;;;91.28;33.92;;;;;;;-0.69;95.50;100919.13;5065325;28;20068;-71
2020/12/09 04:52:45;;;;;;;136.30;33.33;;;;;;;-0.65;95.32;100925.91;5064101;28;20046;-71
2020/12/09 04:55:15;;;;;;;80.32;35.60;;;;;;;-0.87;95.59;100892.94;5067343;28;20311;-72
2020/12/09 04:57:42;;;;;;;146.23;36.10;;;;;;;-0.67;95.26;100925.13;5061687;28;20040;-71
2020/12/09 05:00:11;;;;;;;147.13;36.40;;;;;;;-0.65;95.54;100928.53;5066059;28;20271;-71
2020/12/09 05:02:45;;;;;;;167.80;35.42;;;;;;;-0.66;96.10;100925.06;5063279;28;20028;-71
2020/12/09 05:05:12;;;;;;;204.63;36.95;;;;;;;-0.66;95.40;100929.44;5065236;28;20036;-71
2020/12/09 05:07:38;;;;;;;187.02;37.50;;;;;;;-0.78;95.05;100918.66;5061303;28;20044;-70
2020/12/09 05:10:04;;;;;;;204.18;38.00;;;;;;;-0.85;94.52;100911.19;5045317;28;20043;-70
2020/12/09 05:12:41;;;;;;;160.40;39.38;;;;;;;-0.78;95.17;100928.31;5047788;28;20526;-70
2020/12/09 05:15:10;;;;;;;222.93;36.63;;;;;;;-0.80;95.28;100917.06;5078792;28;20043;-70
2020/12/09 05:17:37;;;;;;;160.43;36.10;;;;;;;-0.76;95.50;100934.34;5058496;28;20525;-70
2020/12/09 05:20:03;;;;;;;166.00;38.88;;;;;;;-0.78;95.90;100941.41;5047402;28;20491;-71
2020/12/09 05:22:28;;;;;;;109.45;35.47;;;;;;;-0.77;95.62;100935.25;5048190;28;20166;-71
2020/12/09 05:24:54;;;;;;;86.38;34.17;;;;;;;-0.72;95.69;100943.72;5055469;28;20052;-71
2020/12/09 05:27:19;;;;;;;295.67;41.88;;;;;;;-0.68;95.59;100939.19;5062829;28;20044;-71
2020/12/09 05:29:46;;;;;;;175.88;39.58;;;;;;;-0.81;95.49;100924.06;5065250;28;20055;-71
2020/12/09 05:32:12;;;;;;;230.75;42.03;;;;;;;-0.71;95.72;100947.19;5058810;28;20052;-71
2020/12/09 05:34:37;;;;;;;161.80;40.70;;;;;;;-0.75;95.67;100954.38;5065875;28;20032;-71
2020/12/09 05:37:04;;;;;;;166.13;42.90;;;;;;;-0.76;95.68;100963.16;5062502;28;20048;-70
2020/12/09 05:39:30;;;;;;;125.88;36.90;;;;;;;-0.74;95.99;100960.44;5064755;28;20029;-71
2020/12/09 05:41:56;;;;;;;142.18;38.47;;;;;;;-0.72;95.97;100967.31;5062838;28;20047;-72
2020/12/09 05:44:22;;;;;;;272.35;42.95;;;;;;;-0.95;96.23;100931.78;5064052;28;20123;-72
2020/12/09 05:46:57;;;;;;;194.43;40.00;;;;;;;-0.66;95.92;100976.63;5063204;28;20127;-72
2020/12/09 05:49:27;;;;;;;109.35;39.92;;;;;;;-0.64;95.97;100977.41;5064083;28;20044;-72
2020/12/09 05:52:22;;;;;;;150.48;39.92;;;;;;;-0.64;97.26;100973.03;5064622;28;20074;-72
2020/12/09 05:54:53;;;;;;;128.60;40.95;;;;;;;-0.82;97.46;100953.84;5053260;28;20045;-71
2020/12/09 05:57:25;;;;;;;171.43;45.95;;;;;;;-0.59;98.00;100985.03;5060213;28;20034;-72
2020/12/09 05:59:50;;;;;;;176.10;43.33;;;;;;;-0.62;97.36;100986.03;5065355;28;20025;-71
2020/12/09 06:02:19;;;;;;;92.13;41.47;;;;;;;-0.59;97.24;100985.03;5065838;28;20040;-72
2020/12/09 06:04:58;;;;;;;253.20;42.67;;;;;;;-0.59;96.72;100993.75;5064377;28;20478;-72
2020/12/09 06:07:25;;;;;;;146.77;41.55;;;;;;;-0.55;96.74;100976.97;5045598;28;20057;-71
2020/12/09 06:10:06;;;;;;;154.57;42.15;;;;;;;-1.19;95.98;100878.84;5058908;28;20071;-71
2020/12/09 06:12:51;;;;;;;162.25;43.15;;;;;;;-0.56;96.39;100993.63;5065513;28;20131;-72
2020/12/09 06:15:17;;;;;;;159.70;40.60;;;;;;;-0.65;95.79;100980.94;5058844;28;20308;-72
2020/12/09 06:17:43;;;;;;;132.15;44.33;;;;;;;-0.61;96.45;100998.22;5055527;28;20032;-71
2020/12/09 06:20:08;;;;;;;263.27;44.13;;;;;;;-0.64;95.51;101001.00;5065213;28;20037;-71
2020/12/09 06:22:34;;;;;;;131.60;42.22;;;;;;;-0.70;95.96;100996.91;5065195;28;20064;-71
2020/12/09 06:25:06;;;;;;;262.65;38.50;;;;;;;-0.62;95.32;100997.41;5065380;28;20077;-71
2020/12/09 06:27:36;;;;;;;214.52;35.30;;;;;;;-1.26;94.87;100907.94;5059764;28;20097;-72
2020/12/09 06:30:03;;;;;;;295.23;37.08;;;;;;;-0.73;94.44;100999.69;5065068;28;20033;-70
2020/12/09 06:32:44;;;;;;;130.85;31.58;;;;;;;-0.76;94.03;100999.84;5063010;28;20071;-71
2020/12/09 06:35:10;;;;;;;241.52;36.95;;;;;;;-0.84;94.92;100986.25;5064073;28;20218;-71
2020/12/09 06:37:36;;;;;;;187.45;35.45;;;;;;;-0.89;94.53;100988.28;5061777;28;20059;-71
2020/12/09 06:40:11;;;;;;;246.15;37.33;;;;;;;-0.85;95.04;100984.56;5062166;28;20036;-72
2020/12/09 06:42:38;;;;;;;171.20;35.20;;;;;;;-0.88;95.14;100988.19;5063969;28;20032;-70
2020/12/09 06:45:04;;;;;;;195.98;36.38;;;;;;;-1.13;95.24;100946.63;5063480;28;20054;-71
2020/12/09 06:47:29;;;;;;;176.45;37.10;;;;;;;-0.97;95.21;100971.16;5060710;28;20035;-70
2020/12/09 06:49:55;;;;;;;250.10;37.40;;;;;;;-0.98;95.45;100986.94;5062951;28;20033;-72
2020/12/09 06:52:31;;;;;;;249.43;39.03;;;;;;;-0.98;95.34;100990.41;5064791;28;20037;-71
2020/12/09 06:54:56;;;;;;;235.35;40.17;;;;;;;-1.04;95.04;100972.38;5063918;28;20381;-71
2020/12/09 06:57:33;;;;;;;149.10;38.30;;;;;;;-1.21;95.02;100975.81;5059632;28;20224;-72
2020/12/09 07:00:11;;;;;;;110.88;37.00;;;;;;;-1.11;95.79;100976.22;5062202;28;20518;-72
2020/12/09 07:02:37;;;;;;;138.48;41.38;;;;;;;-1.14;95.67;100979.84;5064674;28;20067;-72
2020/12/09 07:05:04;;;;;;;159.68;43.72;;;;;;;-1.07;96.04;100985.63;5049729;28;20052;-71
2020/12/09 07:07:37;;;;;;;90.28;42.15;;;;;;;-1.07;96.31;100985.63;5062577;28;20037;-71
2020/12/09 07:10:18;;;;;;;116.32;43.17;;;;;;;-1.02;95.52;100985.41;5041676;28;20060;-71
2020/12/09 07:12:44;;;;;;;306.15;48.28;;;;;;;-1.05;95.36;100988.16;5062634;28;20479;-72
2020/12/09 07:15:10;;;;;;;130.55;40.97;;;;;;;-1.22;95.20;100989.81;5061235;28;20036;-72
2020/12/09 07:17:35;;;;;;;235.15;42.70;;;;;;;-1.24;95.67;100987.28;5057504;28;20040;-71
2020/12/09 07:20:02;;;;;;;142.20;41.60;;;;;;;-1.25;95.50;100992.59;5043020;28;20032;-72
2020/12/09 07:22:28;;;;;;;116.70;43.20;;;;;;;-1.18;95.64;100995.78;5061232;28;20029;-71
2020/12/09 07:24:54;;;;;;;182.65;45.90;;;;;;;-1.23;95.86;101001.25;5060481;28;20045;-70
2020/12/09 07:27:22;;;;;;;202.85;47.20;;;;;;;-1.20;96.06;101002.84;5061411;28;20099;-70
2020/12/09 07:29:48;;;;;;;170.23;47.23;;;;;;;-1.20;96.03;101008.94;5065263;28;20097;-70
2020/12/09 07:32:18;;;;;;;118.63;45.13;;;;;;;-1.30;96.09;100987.59;5062670;28;20474;-71
2020/12/09 07:34:54;;;;;;;125.82;46.47;;;;;;;-1.29;96.03;100970.09;5042828;28;20029;-71
2020/12/09 07:37:20;;;;;;;189.52;48.67;;;;;;;-1.18;95.47;101003.63;5061143;28;20036;-71
2020/12/09 07:39:48;;;;;;;208.90;53.92;;;;;;;-1.20;95.41;101019.41;5037219;28;20455;-71
2020/12/09 07:42:14;;;;;;;;;;;;;;;-1.21;96.09;101015.09;5063014;28;20441;-71
2020/12/09 07:44:41;;;;;;;147.23;52.75;;;;;;;-1.23;96.36;101016.94;5062696;28;19920;-71
2020/12/09 07:47:06;;;;;;;141.18;53.90;;;;;;;-1.18;96.45;101014.94;5058947;28;20296;-71
2020/12/09 07:49:32;;;;;;;160.57;55.95;;;;;;;-1.09;96.50;101013.66;5063919;28;20352;-72
2020/12/09 07:51:58;;;;;;;140.73;54.67;;;;;;;-1.01;96.05;101016.75;5062894;28;20033;-72
2020/12/09 07:54:24;;;;;;;150.90;52.20;;;;;;;-0.99;96.32;101020.16;5058937;28;20025;-72
2020/12/09 07:56:51;;;;;;;172.93;53.72;;;;;;;-1.16;95.23;101002.63;5060179;28;20402;-72
2020/12/09 07:59:16;;;;;;;137.38;48.22;;;;;;;-1.05;95.22;101022.22;5044127;28;20123;-72
2020/12/09 08:01:42;;;;;;;208.82;54.17;;;;;;;-1.27;95.40;100997.06;5062806;28;20568;-72
2020/12/09 08:04:09;;;;;;;176.30;54.05;;;;;;;-1.08;95.95;101029.28;5049150;28;20036;-72
2020/12/09 08:06:35;;;;;;;152.57;48.38;;;;;;;-1.05;95.67;101024.84;5068273;28;20059;-72
2020/12/09 08:09:14;;;;;;;178.00;51.65;;;;;;;-1.24;95.52;100989.91;5067839;28;20035;-73
2020/12/09 08:11:42;;;;;;;201.40;48.88;;;;;;;-1.05;95.70;101023.06;5064314;28;20079;-73
2020/12/09 08:14:08;;;;;;;152.32;46.33;;;;;;;-1.06;95.21;101024.00;5068958;28;20051;-71
2020/12/09 08:16:35;;;;;;;195.50;48.70;;;;;;;-1.12;95.42;101025.16;5080389;28;20036;-71
2020/12/09 08:19:07;;;;;;;265.33;49.47;;;;;;;-1.15;95.19;101024.41;5061557;28;20476;-71
2020/12/09 08:21:33;;;;;;;340.55;49.10;;;;;;;-1.09;95.06;101034.63;5071996;28;20054;-72
2020/12/09 08:23:59;;;;;;;208.80;45.05;;;;;;;-1.16;95.21;101022.75;5074192;28;20319;-71
2020/12/09 08:26:34;;;;;;;236.00;44.25;;;;;;;-1.21;94.55;101020.31;5072735;28;20035;-71
2020/12/09 08:28:59;;;;;;;162.10;42.28;;;;;;;-1.27;94.55;101025.88;5062604;28;20123;-70
2020/12/09 08:31:25;;;;;;;245.27;47.17;;;;;;;-1.27;94.90;101024.06;5062942;28;20548;-70
2020/12/09 08:33:50;;;;;;;186.85;44.08;;;;;;;-1.27;95.01;101025.88;5064950;28;20025;-71
2020/12/09 08:36:19;;;;;;;166.23;42.08;;;;;;;-1.27;95.37;101036.34;5060366;28;20506;-71
2020/12/09 08:38:46;;;;;;;144.73;45.55;;;;;;;-1.31;95.63;101034.78;5059561;28;20036;-70
2020/12/09 08:41:14;;;;;;;150.10;41.03;;;;;;;-1.32;95.21;101012.13;5060867;28;20043;-72
2020/12/09 08:43:41;;;;;;;237.95;41.10;;;;;;;-2.37;94.85;100846.00;5049298;28;20523;-74
2020/12/09 08:46:07;;;;;;;134.18;37.53;;;;;;;-1.54;95.32;100981.72;5053429;28;20036;-71
2020/12/09 08:48:36;;;;;;;176.00;39.03;;;;;;;-1.77;95.12;100933.06;5058984;28;20056;-71
2020/12/09 08:51:01;;;;;;;178.88;39.75;;;;;;;-2.03;94.52;100890.66;5053123;28;20404;-71
2020/12/09 08:53:27;;;;;;;106.20;38.67;;;;;;;-1.27;95.48;101025.88;5060215;28;20343;-71
2020/12/09 08:55:52;;;;;;;128.20;38.72;;;;;;;-1.26;95.57;101036.25;5038123;28;20032;-71
2020/12/09 08:58:18;;;;;;;118.63;36.45;;;;;;;-1.25;95.43;101032.72;5049383;28;20042;-71
2020/12/09 09:00:44;;;;;;;198.15;40.08;;;;;;;-1.23;95.51;101030.03;5058240;28;20059;-71
2020/12/09 09:03:13;;;;;;;149.63;38.30;;;;;;;-1.16;96.11;101035.84;5062466;28;20032;-72
2020/12/09 09:05:40;;;;;;;143.85;40.78;;;;;;;-1.18;95.65;101025.41;5057560;28;20049;-71
2020/12/09 09:08:09;;;;;;;181.60;43.03;;;;;;;-1.33;96.07;101006.06;5056900;28;20494;-72
2020/12/09 09:10:35;;;;;;;123.50;41.88;;;;;;;-1.24;95.74;101010.00;5042657;28;20560;-72
2020/12/09 09:13:01;;;;;;;147.25;42.53;;;;;;;-1.03;96.39;101026.47;5059655;28;20070;-72
2020/12/09 09:15:27;;;;;;;139.70;44.30;;;;;;;-1.12;96.37;100996.31;5060085;28;20062;-72
2020/12/09 09:17:52;;;;;;;173.48;43.58;;;;;;;-0.89;95.91;101030.19;5058226;28;20044;-71
2020/12/09 09:20:18;;;;;;;184.48;46.58;;;;;;;-0.86;96.00;101030.91;5064590;28;20071;-70
2020/12/09 09:22:43;;;;;;;213.55;44.30;;;;;;;-0.81;96.11;101026.25;5044392;28;20041;-70
2020/12/09 09:25:09;;;;;;;152.93;47.05;;;;;;;-1.01;96.40;100979.22;5058954;28;20056;-70
2020/12/09 09:27:35;;;;;;;172.13;46.90;;;;;;;-0.87;96.57;100991.66;5040323;28;20124;-70
2020/12/09 09:30:00;;;;;;;213.57;47.28;;;;;;;-0.66;95.88;101024.69;5057638;28;20547;-70
2020/12/09 09:32:26;;;;;;;180.23;48.97;;;;;;;-1.08;96.52;100958.56;5055165;28;20491;-70
2020/12/09 09:34:52;;;;;;;145.15;45.38;;;;;;;-0.67;96.82;101020.34;5064814;28;20051;-71
2020/12/09 09:37:18;;;;;;;168.45;46.78;;;;;;;-0.67;96.37;101009.00;5067126;28;20282;-71
2020/12/09 09:39:44;;;;;;;109.05;45.75;;;;;;;-0.50;96.47;101014.25;5058961;28;20029;-71
2020/12/09 09:42:10;;;;;;;226.05;47.20;;;;;;;-0.65;96.44;100981.81;5061459;28;20048;-71
2020/12/09 09:44:35;;;;;;;150.82;47.00;;;;;;;-0.60;96.54;100983.34;5056482;28;20036;-71
2020/12/09 09:47:01;;;;;;;215.40;49.63;;;;;;;-0.43;96.60;101003.47;5056996;28;20224;-71
2020/12/09 09:49:26;;;;;;;146.10;48.28;;;;;;;-0.55;96.78;100969.09;5047766;28;20052;-71
2020/12/09 09:51:52;;;;;;;275.63;46.63;;;;;;;-0.34;96.60;101008.25;5076917;28;20051;-71
2020/12/09 09:54:21;;;;;;;154.10;45.90;;;;;;;-0.25;96.47;101015.63;5077604;28;20051;-71
2020/12/09 09:56:47;;;;;;;137.70;46.63;;;;;;;-0.21;96.28;101013.72;5072707;28;20125;-73
2020/12/09 09:59:12;;;;;;;161.75;46.95;;;;;;;-0.13;96.24;101024.66;5062479;28;20087;-71
2020/12/09 10:01:38;;;;;;;169.52;46.47;;;;;;;-0.16;96.32;101030.91;5057788;28;20037;-71
2020/12/09 10:04:06;;;;;;;141.85;46.42;;;;;;;-0.25;96.41;101004.31;5061207;28;20040;-71
2020/12/09 10:06:33;;;;;;;133.23;43.80;;;;;;;-0.13;96.33;101018.53;5076881;28;20032;-71
2020/12/09 10:08:58;;;;;;;122.75;41.03;;;;;;;-0.08;95.42;101014.78;5058141;28;20669;-71
2020/12/09 10:11:24;;;;;;;110.97;43.03;;;;;;;-0.09;95.13;101020.09;5055605;28;20048;-71
2020/12/09 10:13:50;;;;;;;127.70;41.15;;;;;;;-0.08;95.19;101016.53;5056296;28;20029;-71
2020/12/09 10:16:23;;;;;;;92.38;38.47;;;;;;;-0.10;95.00;101014.00;5058932;28;20036;-71
2020/12/09 10:18:48;;;;;;;165.07;46.40;;;;;;;-0.17;95.54;101007.38;5057652;28;20277;-73
2020/12/09 10:21:20;;;;;;;149.27;46.70;;;;;;;-0.10;95.24;101005.25;5057199;28;22249;-71
2020/12/09 10:23:45;;;;;;;190.50;48.47;;;;;;;-0.03;95.65;101002.25;5058253;28;20079;-73
2020/12/09 10:26:12;;;;;;;144.30;46.90;;;;;;;-0.13;95.37;100987.91;5053081;28;20171;-71
2020/12/09 10:28:37;;;;;;;116.80;45.17;;;;;;;-0.01;95.34;100995.16;5060597;28;20068;-71
2020/12/09 10:31:03;;;;;;;137.80;46.65;;;;;;;0.07;95.24;101009.66;5062338;28;20103;-71
2020/12/09 10:33:28;;;;;;;120.90;44.05;;;;;;;0.04;94.51;101002.78;5060128;28;20033;-72
2020/12/09 10:35:54;;;;;;;114.88;44.33;;;;;;;0.05;94.98;101003.63;5056893;28;20040;-72
2020/12/09 10:38:19;;;;;;;124.57;45.95;;;;;;;-0.04;94.84;100978.72;5052464;28;20411;-71
2020/12/09 10:40:45;;;;;;;166.93;46.75;;;;;;;0.05;94.80;100995.75;5057913;28;20036;-71
2020/12/09 10:43:10;;;;;;;151.13;48.13;;;;;;;-0.02;95.02;100995.25;5053956;28;20051;-71
2020/12/09 10:45:36;;;;;;;173.70;48.78;;;;;;;0.08;95.24;100998.19;5042442;28;20037;-71
2020/12/09 10:48:01;;;;;;;171.40;50.40;;;;;;;0.09;94.80;100992.88;5058045;28;20287;-71
2020/12/09 10:50:27;;;;;;;138.90;46.92;;;;;;;0.13;94.77;100991.81;5059085;28;20070;-70
2020/12/09 10:52:54;;;;;;;135.88;50.25;;;;;;;0.12;94.94;100992.72;5058128;28;20036;-70
2020/12/09 10:55:23;;;;;;;123.20;48.65;;;;;;;0.19;95.14;100982.75;5052214;28;20040;-70
2020/12/09 10:57:48;;;;;;;124.65;48.45;;;;;;;0.19;94.99;100989.75;5036486;28;20127;-71
2020/12/09 11:00:14;;;;;;;147.75;47.70;;;;;;;0.29;95.03;100983.94;5058097;28;20521;-71
2020/12/09 11:02:39;;;;;;;148.88;46.08;;;;;;;0.36;94.99;100973.94;5068517;28;20437;-71
2020/12/09 11:05:05;;;;;;;147.38;47.03;;;;;;;0.32;94.71;100985.53;5058781;28;20086;-70